sensor_id;sensor_type;location;lat;lon;timestamp;pressure;altitude;pressure_sealevel;temperature;humidity
7940;BME280;4015;48.888;9.226;2024-02-23T00:02:05;157004.06;;;6.99;80.83
7940;BME280;4015;48.888;9.226;2024-02-23T00:04:30;156987.50;;;6.93;80.98
7940;BME280;4015;48.888;9.226;2024-02-23T00:06:56;156998.94;;;6.97;80.25
7940;BME280;4015;48.888;9.226;2024-02-23T00:09:21;157015.56;;;7.04;81.04
7940;BME280;4015;48.888;9.226;2024-02-23T00:11:46;157019.38;;;7.06;80.98
7940;BME280;4015;48.888;9.226;2024-02-23T00:14:15;157021.91;;;7.07;79.12
7940;BME280;4015;48.888;9.226;2024-02-23T00:16:42;157021.91;;;7.07;80.03
7940;BME280;4015;48.888;9.226;2024-02-23T00:19:08;157030.81;;;7.10;80.65
7940;BME280;4015;48.888;9.226;2024-02-23T00:21:37;157037.22;;;7.13;79.68
7940;BME280;4015;48.888;9.226;2024-02-23T00:24:03;157018.09;;;7.05;80.21
7940;BME280;4015;48.888;9.226;2024-02-23T00:26:28;156992.59;;;6.95;79.98
7940;BME280;4015;48.888;9.226;2024-02-23T00:28:56;156988.78;;;6.93;80.68
7940;BME280;4015;48.888;9.226;2024-02-23T00:31:22;156990.06;;;6.94;80.51
7940;BME280;4015;48.888;9.226;2024-02-23T00:33:47;156993.88;;;6.95;80.86
7940;BME280;4015;48.888;9.226;2024-02-23T00:36:12;156998.94;;;6.97;81.00
7940;BME280;4015;48.888;9.226;2024-02-23T00:38:38;156988.78;;;6.93;81.67
7940;BME280;4015;48.888;9.226;2024-02-23T00:41:03;156974.75;;;6.88;80.88
7940;BME280;4015;48.888;9.226;2024-02-23T00:43:28;156977.31;;;6.89;81.12
7940;BME280;4015;48.888;9.226;2024-02-23T00:45:56;156990.06;;;6.94;80.89
7940;BME280;4015;48.888;9.226;2024-02-23T00:48:22;156987.50;;;6.93;79.82
7940;BME280;4015;48.888;9.226;2024-02-23T00:50:47;156993.88;;;6.95;78.42
7940;BME280;4015;48.888;9.226;2024-02-23T00:53:12;157006.63;;;7.00;79.02
7940;BME280;4015;48.888;9.226;2024-02-23T00:55:37;157004.06;;;6.99;77.89
7940;BME280;4015;48.888;9.226;2024-02-23T00:58:03;157007.88;;;7.01;78.58
7940;BME280;4015;48.888;9.226;2024-02-23T01:00:28;157004.06;;;6.99;78.08
7940;BME280;4015;48.888;9.226;2024-02-23T01:02:54;156998.94;;;6.97;78.18
7940;BME280;4015;48.888;9.226;2024-02-23T01:05:19;156978.56;;;6.89;77.73
7940;BME280;4015;48.888;9.226;2024-02-23T01:07:44;156986.25;;;6.92;77.84
7940;BME280;4015;48.888;9.226;2024-02-23T01:10:10;156995.13;;;6.96;77.77
7940;BME280;4015;48.888;9.226;2024-02-23T01:12:35;156981.13;;;6.90;77.17
7940;BME280;4015;48.888;9.226;2024-02-23T01:15:01;156992.59;;;6.95;77.16
7940;BME280;4015;48.888;9.226;2024-02-23T01:17:26;156997.69;;;6.97;76.94
7940;BME280;4015;48.888;9.226;2024-02-23T01:19:51;157001.53;;;6.98;76.81
7940;BME280;4015;48.888;9.226;2024-02-23T01:22:17;157016.81;;;7.05;76.79
7940;BME280;4015;48.888;9.226;2024-02-23T01:24:43;157025.72;;;7.08;76.69
7940;BME280;4015;48.888;9.226;2024-02-23T01:27:08;157025.72;;;7.08;76.49
7940;BME280;4015;48.888;9.226;2024-02-23T01:29:33;157012.97;;;7.03;76.34
7940;BME280;4015;48.888;9.226;2024-02-23T01:31:59;157012.97;;;7.03;77.14
7940;BME280;4015;48.888;9.226;2024-02-23T01:34:25;157011.69;;;7.02;76.65
7940;BME280;4015;48.888;9.226;2024-02-23T01:36:50;157004.06;;;6.99;76.52
7940;BME280;4015;48.888;9.226;2024-02-23T01:39:15;157010.44;;;7.02;77.03
7940;BME280;4015;48.888;9.226;2024-02-23T01:41:41;157012.97;;;7.03;76.85
7940;BME280;4015;48.888;9.226;2024-02-23T01:44:07;157011.69;;;7.02;76.55
7940;BME280;4015;48.888;9.226;2024-02-23T01:46:33;157007.88;;;7.01;76.81
7940;BME280;4015;48.888;9.226;2024-02-23T01:48:58;157020.63;;;7.06;77.43
7940;BME280;4015;48.888;9.226;2024-02-23T01:51:24;157028.25;;;7.09;77.14
7940;BME280;4015;48.888;9.226;2024-02-23T01:53:50;157041.00;;;7.14;76.88
7940;BME280;4015;48.888;9.226;2024-02-23T01:56:16;157046.09;;;7.16;77.77
7940;BME280;4015;48.888;9.226;2024-02-23T01:58:43;157042.28;;;7.15;77.25
7940;BME280;4015;48.888;9.226;2024-02-23T02:01:08;157021.91;;;7.07;77.65
7940;BME280;4015;48.888;9.226;2024-02-23T02:03:35;157052.50;;;7.19;78.37
7940;BME280;4015;48.888;9.226;2024-02-23T02:06:01;157014.22;;;7.03;78.18
7940;BME280;4015;48.888;9.226;2024-02-23T02:08:27;157027.00;;;7.09;79.46
7940;BME280;4015;48.888;9.226;2024-02-23T02:10:52;156997.69;;;6.97;78.69
7940;BME280;4015;48.888;9.226;2024-02-23T02:13:18;157016.81;;;7.05;78.99
7940;BME280;4015;48.888;9.226;2024-02-23T02:15:43;157020.63;;;7.06;79.45
7940;BME280;4015;48.888;9.226;2024-02-23T02:18:09;157033.41;;;7.11;80.68
7940;BME280;4015;48.888;9.226;2024-02-23T02:20:36;157034.66;;;7.12;79.65
7940;BME280;4015;48.888;9.226;2024-02-23T02:23:02;157012.97;;;7.03;79.14
7940;BME280;4015;48.888;9.226;2024-02-23T02:25:27;156997.69;;;6.97;79.95
7940;BME280;4015;48.888;9.226;2024-02-23T02:27:52;156996.41;;;6.96;80.46
7940;BME280;4015;48.888;9.226;2024-02-23T02:30:18;156993.88;;;6.95;81.09
7940;BME280;4015;48.888;9.226;2024-02-23T02:32:43;156995.13;;;6.96;81.22
7940;BME280;4015;48.888;9.226;2024-02-23T02:35:10;156970.94;;;6.86;81.47
7940;BME280;4015;48.888;9.226;2024-02-23T02:37:36;156972.22;;;6.87;82.02
7940;BME280;4015;48.888;9.226;2024-02-23T02:40:02;156942.91;;;6.75;82.05
7940;BME280;4015;48.888;9.226;2024-02-23T02:42:28;156935.25;;;6.72;82.68
7940;BME280;4015;48.888;9.226;2024-02-23T02:44:54;156903.38;;;6.59;82.46
7940;BME280;4015;48.888;9.226;2024-02-23T02:47:19;156898.31;;;6.57;83.01
7940;BME280;4015;48.888;9.226;2024-02-23T02:49:44;156918.69;;;6.65;83.18
7940;BME280;4015;48.888;9.226;2024-02-23T02:52:10;156919.94;;;6.66;82.57
7940;BME280;4015;48.888;9.226;2024-02-23T02:54:35;156897.03;;;6.57;83.30
7940;BME280;4015;48.888;9.226;2024-02-23T02:57:00;156886.81;;;6.53;83.81
7940;BME280;4015;48.888;9.226;2024-02-23T02:59:26;156900.84;;;6.58;83.71
7940;BME280;4015;48.888;9.226;2024-02-23T03:01:51;156898.31;;;6.57;83.42
7940;BME280;4015;48.888;9.226;2024-02-23T03:04:16;156895.75;;;6.56;83.21
7940;BME280;4015;48.888;9.226;2024-02-23T03:06:41;156876.66;;;6.48;83.19
7940;BME280;4015;48.888;9.226;2024-02-23T03:09:07;156869.00;;;6.45;82.92
7940;BME280;4015;48.888;9.226;2024-02-23T03:11:32;156856.25;;;6.40;83.26
7940;BME280;4015;48.888;9.226;2024-02-23T03:13:57;156837.16;;;6.33;83.50
7940;BME280;4015;48.888;9.226;2024-02-23T03:16:23;156844.81;;;6.36;83.61
7940;BME280;4015;48.888;9.226;2024-02-23T03:18:51;156853.72;;;6.39;83.48
7940;BME280;4015;48.888;9.226;2024-02-23T03:21:16;156857.53;;;6.41;83.36
7940;BME280;4015;48.888;9.226;2024-02-23T03:23:41;156870.28;;;6.46;84.07
7940;BME280;4015;48.888;9.226;2024-02-23T03:26:07;156883.03;;;6.51;84.18
7940;BME280;4015;48.888;9.226;2024-02-23T03:28:32;156895.75;;;6.56;84.19
7940;BME280;4015;48.888;9.226;2024-02-23T03:30:58;156895.75;;;6.56;82.93
7940;BME280;4015;48.888;9.226;2024-02-23T03:33:23;156909.78;;;6.62;82.15
7940;BME280;4015;48.888;9.226;2024-02-23T03:35:48;156909.78;;;6.62;82.65
7940;BME280;4015;48.888;9.226;2024-02-23T03:38:14;156921.25;;;6.66;82.43
7940;BME280;4015;48.888;9.226;2024-02-23T03:40:39;156909.78;;;6.62;81.51
7940;BME280;4015;48.888;9.226;2024-02-23T03:43:05;156903.38;;;6.59;80.68
7940;BME280;4015;48.888;9.226;2024-02-23T03:45:31;156865.19;;;6.44;79.84
7940;BME280;4015;48.888;9.226;2024-02-23T03:47:56;156898.31;;;6.57;78.92
7940;BME280;4015;48.888;9.226;2024-02-23T03:50:21;156904.66;;;6.60;78.62
7940;BME280;4015;48.888;9.226;2024-02-23T03:52:47;156890.69;;;6.54;79.65
7940;BME280;4015;48.888;9.226;2024-02-23T03:55:12;156895.75;;;6.56;78.63
7940;BME280;4015;48.888;9.226;2024-02-23T03:57:37;156899.56;;;6.58;78.64
7940;BME280;4015;48.888;9.226;2024-02-23T04:00:03;156871.53;;;6.46;77.85
7940;BME280;4015;48.888;9.226;2024-02-23T04:02:29;156869.00;;;6.45;78.52
7940;BME280;4015;48.888;9.226;2024-02-23T04:04:54;156854.97;;;6.40;77.16
7940;BME280;4015;48.888;9.226;2024-02-23T04:07:19;156848.63;;;6.37;77.26
7940;BME280;4015;48.888;9.226;2024-02-23T04:09:45;156876.66;;;6.48;76.01
7940;BME280;4015;48.888;9.226;2024-02-23T04:12:10;156853.72;;;6.39;76.26
7940;BME280;4015;48.888;9.226;2024-02-23T04:14:35;156835.88;;;6.32;75.57
7940;BME280;4015;48.888;9.226;2024-02-23T04:17:04;156840.97;;;6.34;75.86
7940;BME280;4015;48.888;9.226;2024-02-23T04:19:30;156858.84;;;6.41;76.28
7940;BME280;4015;48.888;9.226;2024-02-23T04:21:55;156853.72;;;6.39;76.34
7940;BME280;4015;48.888;9.226;2024-02-23T04:24:22;156820.59;;;6.26;74.69
7940;BME280;4015;48.888;9.226;2024-02-23T04:26:47;156834.63;;;6.32;75.63
7940;BME280;4015;48.888;9.226;2024-02-23T04:29:12;156825.69;;;6.28;75.55
7940;BME280;4015;48.888;9.226;2024-02-23T04:31:37;156790.03;;;6.14;75.44
7940;BME280;4015;48.888;9.226;2024-02-23T04:34:03;156797.69;;;6.17;73.94
7940;BME280;4015;48.888;9.226;2024-02-23T04:36:28;156781.13;;;6.10;73.67
7940;BME280;4015;48.888;9.226;2024-02-23T04:38:54;156776.00;;;6.08;72.87
7940;BME280;4015;48.888;9.226;2024-02-23T04:41:20;156774.75;;;6.08;74.13
7940;BME280;4015;48.888;9.226;2024-02-23T04:43:50;156774.75;;;6.08;73.28
7940;BME280;4015;48.888;9.226;2024-02-23T04:46:15;156802.78;;;6.19;72.88
7940;BME280;4015;48.888;9.226;2024-02-23T04:48:40;156779.88;;;6.10;72.01
7940;BME280;4015;48.888;9.226;2024-02-23T04:51:06;156786.22;;;6.12;71.60
7940;BME280;4015;48.888;9.226;2024-02-23T04:53:37;156801.50;;;6.18;70.65
7940;BME280;4015;48.888;9.226;2024-02-23T04:56:04;156820.59;;;6.26;71.73
7940;BME280;4015;48.888;9.226;2024-02-23T04:58:29;156779.88;;;6.10;72.15
7940;BME280;4015;48.888;9.226;2024-02-23T05:00:55;156769.66;;;6.06;71.42
7940;BME280;4015;48.888;9.226;2024-02-23T05:03:20;156765.84;;;6.04;70.60
7940;BME280;4015;48.888;9.226;2024-02-23T05:05:46;156764.59;;;6.04;71.37
7940;BME280;4015;48.888;9.226;2024-02-23T05:08:11;156749.31;;;5.98;70.78
7940;BME280;4015;48.888;9.226;2024-02-23T05:10:36;156739.09;;;5.93;70.86
7940;BME280;4015;48.888;9.226;2024-02-23T05:13:01;156746.72;;;5.97;71.29
7940;BME280;4015;48.888;9.226;2024-02-23T05:15:27;156758.19;;;6.01;71.59
7940;BME280;4015;48.888;9.226;2024-02-23T05:17:52;156758.19;;;6.01;71.84
7940;BME280;4015;48.888;9.226;2024-02-23T05:20:17;156723.78;;;5.87;70.62
7940;BME280;4015;48.888;9.226;2024-02-23T05:22:43;156721.22;;;5.86;71.07
7940;BME280;4015;48.888;9.226;2024-02-23T05:25:08;156717.41;;;5.85;71.91
7940;BME280;4015;48.888;9.226;2024-02-23T05:27:34;156722.50;;;5.87;73.66
7940;BME280;4015;48.888;9.226;2024-02-23T05:29:59;156689.41;;;5.74;73.08
7940;BME280;4015;48.888;9.226;2024-02-23T05:32:25;156667.72;;;5.65;72.82
7940;BME280;4015;48.888;9.226;2024-02-23T05:34:50;156681.72;;;5.71;72.41
7940;BME280;4015;48.888;9.226;2024-02-23T05:37:18;156669.00;;;5.65;72.45
7940;BME280;4015;48.888;9.226;2024-02-23T05:39:43;156683.00;;;5.71;72.62
7940;BME280;4015;48.888;9.226;2024-02-23T05:42:13;156679.19;;;5.69;72.66
7940;BME280;4015;48.888;9.226;2024-02-23T05:44:39;156680.47;;;5.70;72.27
7940;BME280;4015;48.888;9.226;2024-02-23T05:47:04;156683.00;;;5.71;72.90
7940;BME280;4015;48.888;9.226;2024-02-23T05:49:30;156681.72;;;5.71;73.18
7940;BME280;4015;48.888;9.226;2024-02-23T05:51:55;156658.84;;;5.61;72.56
7940;BME280;4015;48.888;9.226;2024-02-23T05:54:20;156649.91;;;5.58;72.72
7940;BME280;4015;48.888;9.226;2024-02-23T05:56:46;156652.44;;;5.59;72.70
7940;BME280;4015;48.888;9.226;2024-02-23T05:59:11;156638.47;;;5.53;73.79
7940;BME280;4015;48.888;9.226;2024-02-23T06:01:36;156641.03;;;5.54;73.93
7940;BME280;4015;48.888;9.226;2024-02-23T06:04:02;156610.47;;;5.42;73.96
7940;BME280;4015;48.888;9.226;2024-02-23T06:06:28;156604.06;;;5.39;74.74
7940;BME280;4015;48.888;9.226;2024-02-23T06:08:53;156596.47;;;5.36;75.17
7940;BME280;4015;48.888;9.226;2024-02-23T06:11:18;156581.19;;;5.30;75.09
7940;BME280;4015;48.888;9.226;2024-02-23T06:13:44;156574.78;;;5.28;75.25
7940;BME280;4015;48.888;9.226;2024-02-23T06:16:10;156565.91;;;5.24;76.25
7940;BME280;4015;48.888;9.226;2024-02-23T06:18:37;156537.91;;;5.13;76.07
7940;BME280;4015;48.888;9.226;2024-02-23T06:21:13;156555.72;;;5.20;75.55
7940;BME280;4015;48.888;9.226;2024-02-23T06:23:39;156535.34;;;5.12;76.33
7940;BME280;4015;48.888;9.226;2024-02-23T06:26:05;156523.91;;;5.07;75.92
7940;BME280;4015;48.888;9.226;2024-02-23T06:28:30;156518.81;;;5.05;76.06
7940;BME280;4015;48.888;9.226;2024-02-23T06:30:56;156525.16;;;5.08;75.55
7940;BME280;4015;48.888;9.226;2024-02-23T06:33:21;156532.81;;;5.11;75.51
7940;BME280;4015;48.888;9.226;2024-02-23T06:35:46;156530.28;;;5.10;76.90
7940;BME280;4015;48.888;9.226;2024-02-23T06:38:12;156511.16;;;5.02;77.25
7940;BME280;4015;48.888;9.226;2024-02-23T06:40:37;156516.28;;;5.04;77.26
7940;BME280;4015;48.888;9.226;2024-02-23T06:43:02;156504.81;;;5.00;77.94
7940;BME280;4015;48.888;9.226;2024-02-23T06:45:27;156512.47;;;5.03;77.71
7940;BME280;4015;48.888;9.226;2024-02-23T06:47:53;156529.00;;;5.09;77.74
7940;BME280;4015;48.888;9.226;2024-02-23T06:50:18;156520.09;;;5.06;78.74
7940;BME280;4015;48.888;9.226;2024-02-23T06:52:44;156536.63;;;5.12;79.10
7940;BME280;4015;48.888;9.226;2024-02-23T06:55:10;156548.09;;;5.17;79.04
7940;BME280;4015;48.888;9.226;2024-02-23T06:57:35;156560.84;;;5.22;78.29
7940;BME280;4015;48.888;9.226;2024-02-23T07:00:02;156559.56;;;5.22;78.72
7940;BME280;4015;48.888;9.226;2024-02-23T07:02:27;156550.63;;;5.18;79.99
7940;BME280;4015;48.888;9.226;2024-02-23T07:04:56;156560.84;;;5.22;79.90
7940;BME280;4015;48.888;9.226;2024-02-23T07:07:22;156564.63;;;5.24;80.89
7940;BME280;4015;48.888;9.226;2024-02-23T07:09:47;156558.25;;;5.21;81.01
7940;BME280;4015;48.888;9.226;2024-02-23T07:12:12;156576.09;;;5.28;81.97
7940;BME280;4015;48.888;9.226;2024-02-23T07:14:38;156588.78;;;5.33;81.70
7940;BME280;4015;48.888;9.226;2024-02-23T07:17:04;156619.34;;;5.46;82.04
7940;BME280;4015;48.888;9.226;2024-02-23T07:19:29;156621.88;;;5.47;81.92
7940;BME280;4015;48.888;9.226;2024-02-23T07:21:55;156628.28;;;5.49;82.43
7940;BME280;4015;48.888;9.226;2024-02-23T07:24:20;156628.28;;;5.49;82.66
7940;BME280;4015;48.888;9.226;2024-02-23T07:26:45;156639.75;;;5.54;83.35
7940;BME280;4015;48.888;9.226;2024-02-23T07:29:11;156627.00;;;5.49;83.59
7940;BME280;4015;48.888;9.226;2024-02-23T07:31:36;156652.44;;;5.59;84.04
7940;BME280;4015;48.888;9.226;2024-02-23T07:34:01;156690.66;;;5.74;84.09
7940;BME280;4015;48.888;9.226;2024-02-23T07:36:27;156698.28;;;5.77;84.16
7940;BME280;4015;48.888;9.226;2024-02-23T07:38:52;156684.28;;;5.72;83.55
7940;BME280;4015;48.888;9.226;2024-02-23T07:41:17;156716.09;;;5.84;84.10
7940;BME280;4015;48.888;9.226;2024-02-23T07:43:43;156746.72;;;5.97;82.90
7940;BME280;4015;48.888;9.226;2024-02-23T07:46:09;156755.66;;;6.00;83.29
7940;BME280;4015;48.888;9.226;2024-02-23T07:48:35;156773.47;;;6.07;83.25
7940;BME280;4015;48.888;9.226;2024-02-23T07:51:01;156797.69;;;6.17;81.88
7940;BME280;4015;48.888;9.226;2024-02-23T07:53:27;156790.03;;;6.14;80.30
7940;BME280;4015;48.888;9.226;2024-02-23T07:55:52;156825.69;;;6.28;79.84
7940;BME280;4015;48.888;9.226;2024-02-23T07:58:18;156814.25;;;6.24;79.73
7940;BME280;4015;48.888;9.226;2024-02-23T08:00:44;156795.09;;;6.16;79.88
7940;BME280;4015;48.888;9.226;2024-02-23T08:03:09;156782.41;;;6.11;79.19
7940;BME280;4015;48.888;9.226;2024-02-23T08:05:36;156773.47;;;6.07;80.39
7940;BME280;4015;48.888;9.226;2024-02-23T08:08:02;156783.69;;;6.11;80.57
7940;BME280;4015;48.888;9.226;2024-02-23T08:10:27;156788.75;;;6.13;80.71
7940;BME280;4015;48.888;9.226;2024-02-23T08:12:53;156782.41;;;6.11;79.91
7940;BME280;4015;48.888;9.226;2024-02-23T08:15:18;156764.59;;;6.04;80.75
7940;BME280;4015;48.888;9.226;2024-02-23T08:17:44;156740.38;;;5.94;80.56
7940;BME280;4015;48.888;9.226;2024-02-23T08:20:09;156767.13;;;6.05;80.38
7940;BME280;4015;48.888;9.226;2024-02-23T08:22:35;156762.00;;;6.03;80.00
7940;BME280;4015;48.888;9.226;2024-02-23T08:25:00;156807.84;;;6.21;79.74
7940;BME280;4015;48.888;9.226;2024-02-23T08:27:25;156814.25;;;6.24;79.10
7940;BME280;4015;48.888;9.226;2024-02-23T08:29:51;156874.13;;;6.47;79.68
7940;BME280;4015;48.888;9.226;2024-02-23T08:32:16;156940.38;;;6.74;78.65
7940;BME280;4015;48.888;9.226;2024-02-23T08:34:43;156995.13;;;6.96;76.89
7940;BME280;4015;48.888;9.226;2024-02-23T08:37:08;156990.06;;;6.94;77.24
7940;BME280;4015;48.888;9.226;2024-02-23T08:39:33;156928.88;;;6.69;76.97
7940;BME280;4015;48.888;9.226;2024-02-23T08:41:59;156948.00;;;6.77;77.92
7940;BME280;4015;48.888;9.226;2024-02-23T08:44:24;156950.53;;;6.78;77.69
7940;BME280;4015;48.888;9.226;2024-02-23T08:46:49;156968.41;;;6.85;77.60
7940;BME280;4015;48.888;9.226;2024-02-23T08:49:15;156942.91;;;6.75;77.93
7940;BME280;4015;48.888;9.226;2024-02-23T08:51:40;156967.09;;;6.85;78.54
7940;BME280;4015;48.888;9.226;2024-02-23T08:54:06;156960.75;;;6.82;77.21
7940;BME280;4015;48.888;9.226;2024-02-23T08:56:42;156932.69;;;6.71;78.42
7940;BME280;4015;48.888;9.226;2024-02-23T08:59:08;156933.97;;;6.71;76.74
7940;BME280;4015;48.888;9.226;2024-02-23T09:01:35;156926.34;;;6.68;76.81
7940;BME280;4015;48.888;9.226;2024-02-23T09:04:01;156904.66;;;6.60;77.30
7940;BME280;4015;48.888;9.226;2024-02-23T09:06:26;156940.38;;;6.74;79.08
7940;BME280;4015;48.888;9.226;2024-02-23T09:08:51;156931.44;;;6.70;77.37
7940;BME280;4015;48.888;9.226;2024-02-23T09:11:17;156948.00;;;6.77;76.81
7940;BME280;4015;48.888;9.226;2024-02-23T09:13:42;156962.00;;;6.83;76.08
7940;BME280;4015;48.888;9.226;2024-02-23T09:16:08;156941.63;;;6.74;76.16
7940;BME280;4015;48.888;9.226;2024-02-23T09:18:34;156981.13;;;6.90;76.19
7940;BME280;4015;48.888;9.226;2024-02-23T09:20:59;157020.63;;;7.06;75.47
7940;BME280;4015;48.888;9.226;2024-02-23T09:23:25;156964.56;;;6.84;73.55
7940;BME280;4015;48.888;9.226;2024-02-23T09:25:51;156949.25;;;6.78;74.91
7940;BME280;4015;48.888;9.226;2024-02-23T09:28:16;156958.19;;;6.81;74.61
7940;BME280;4015;48.888;9.226;2024-02-23T09:30:41;156988.78;;;6.93;73.21
7940;BME280;4015;48.888;9.226;2024-02-23T09:33:07;157041.00;;;7.14;73.86
7940;BME280;4015;48.888;9.226;2024-02-23T09:35:33;157007.88;;;7.01;71.00
7940;BME280;4015;48.888;9.226;2024-02-23T09:37:58;156992.59;;;6.95;70.86
7940;BME280;4015;48.888;9.226;2024-02-23T09:40:24;157010.44;;;7.02;72.03
7940;BME280;4015;48.888;9.226;2024-02-23T09:42:57;157011.69;;;7.02;71.08
7940;BME280;4015;48.888;9.226;2024-02-23T09:45:27;157020.63;;;7.06;71.74
7940;BME280;4015;48.888;9.226;2024-02-23T09:47:56;157079.28;;;7.29;70.68
7940;BME280;4015;48.888;9.226;2024-02-23T09:50:25;157143.00;;;7.55;71.92
7940;BME280;4015;48.888;9.226;2024-02-23T09:52:50;157214.38;;;7.83;70.89
7940;BME280;4015;48.888;9.226;2024-02-23T09:55:21;157278.13;;;8.09;68.72
7940;BME280;4015;48.888;9.226;2024-02-23T09:57:48;157442.75;;;8.75;68.12
7940;BME280;4015;48.888;9.226;2024-02-23T10:00:16;157667.38;;;9.64;66.53
7940;BME280;4015;48.888;9.226;2024-02-23T10:02:43;157818.09;;;10.24;61.29
7940;BME280;4015;48.888;9.226;2024-02-23T10:05:10;157746.53;;;9.96;60.45
7940;BME280;4015;48.888;9.226;2024-02-23T10:07:36;157500.16;;;8.98;63.08
7940;BME280;4015;48.888;9.226;2024-02-23T10:10:01;157352.19;;;8.38;63.27
7940;BME280;4015;48.888;9.226;2024-02-23T10:12:27;157310.03;;;8.22;64.84
7940;BME280;4015;48.888;9.226;2024-02-23T10:14:52;157269.25;;;8.05;64.51
7940;BME280;4015;48.888;9.226;2024-02-23T10:17:18;157228.41;;;7.89;65.03
7940;BME280;4015;48.888;9.226;2024-02-23T10:19:45;157176.16;;;7.68;65.39
7940;BME280;4015;48.888;9.226;2024-02-23T10:22:10;157204.22;;;7.79;69.21
7940;BME280;4015;48.888;9.226;2024-02-23T10:24:36;157253.94;;;7.99;70.56
7940;BME280;4015;48.888;9.226;2024-02-23T10:27:02;157205.47;;;7.80;67.91
7940;BME280;4015;48.888;9.226;2024-02-23T10:29:27;157196.53;;;7.76;69.04
7940;BME280;4015;48.888;9.226;2024-02-23T10:31:56;157280.69;;;8.10;69.08
7940;BME280;4015;48.888;9.226;2024-02-23T10:34:23;157341.91;;;8.34;65.21
7940;BME280;4015;48.888;9.226;2024-02-23T10:36:49;157364.94;;;8.44;67.20
7940;BME280;4015;48.888;9.226;2024-02-23T10:39:17;157308.75;;;8.21;69.13
7940;BME280;4015;48.888;9.226;2024-02-23T10:41:56;157315.16;;;8.24;69.06
7940;BME280;4015;48.888;9.226;2024-02-23T10:44:22;157414.69;;;8.63;67.93
7940;BME280;4015;48.888;9.226;2024-02-23T10:46:50;157450.41;;;8.78;65.80
7940;BME280;4015;48.888;9.226;2024-02-23T10:49:17;157622.69;;;9.46;65.32
7940;BME280;4015;48.888;9.226;2024-02-23T10:51:45;157720.97;;;9.86;60.64
7940;BME280;4015;48.888;9.226;2024-02-23T10:54:12;157761.84;;;10.02;61.42
7940;BME280;4015;48.888;9.226;2024-02-23T10:56:38;157828.28;;;10.29;60.73
7940;BME280;4015;48.888;9.226;2024-02-23T10:59:04;157852.56;;;10.38;62.61
7940;BME280;4015;48.888;9.226;2024-02-23T11:01:31;157894.69;;;10.55;61.41
7940;BME280;4015;48.888;9.226;2024-02-23T11:03:58;157929.22;;;10.69;61.54
7940;BME280;4015;48.888;9.226;2024-02-23T11:06:27;157934.31;;;10.71;61.12
7940;BME280;4015;48.888;9.226;2024-02-23T11:08:53;157897.28;;;10.56;60.44
7940;BME280;4015;48.888;9.226;2024-02-23T11:11:19;157926.63;;;10.68;62.03
7940;BME280;4015;48.888;9.226;2024-02-23T11:13:45;157959.84;;;10.81;61.54
7940;BME280;4015;48.888;9.226;2024-02-23T11:16:21;157906.22;;;10.60;60.53
7940;BME280;4015;48.888;9.226;2024-02-23T11:18:47;157862.75;;;10.42;60.63
7940;BME280;4015;48.888;9.226;2024-02-23T11:21:12;157800.13;;;10.17;60.00
7940;BME280;4015;48.888;9.226;2024-02-23T11:23:44;157712.06;;;9.82;62.15
7940;BME280;4015;48.888;9.226;2024-02-23T11:26:11;157629.09;;;9.49;63.56
7940;BME280;4015;48.888;9.226;2024-02-23T11:28:52;157580.53;;;9.30;63.84
7940;BME280;4015;48.888;9.226;2024-02-23T11:31:21;157534.66;;;9.11;62.27
7940;BME280;4015;48.888;9.226;2024-02-23T11:33:54;157481.03;;;8.90;63.18
7940;BME280;4015;48.888;9.226;2024-02-23T11:36:31;157496.34;;;8.96;65.47
7940;BME280;4015;48.888;9.226;2024-02-23T11:38:58;157518.00;;;9.05;63.45
7940;BME280;4015;48.888;9.226;2024-02-23T11:41:24;157521.88;;;9.06;62.78
7940;BME280;4015;48.888;9.226;2024-02-23T11:43:54;157562.69;;;9.23;63.41
7940;BME280;4015;48.888;9.226;2024-02-23T11:46:26;157491.25;;;8.94;63.96
7940;BME280;4015;48.888;9.226;2024-02-23T11:48:51;157563.97;;;9.23;65.82
7940;BME280;4015;48.888;9.226;2024-02-23T11:51:20;157565.22;;;9.24;65.71
7940;BME280;4015;48.888;9.226;2024-02-23T11:53:47;157537.19;;;9.12;64.25
7940;BME280;4015;48.888;9.226;2024-02-23T11:56:13;157641.81;;;9.54;64.92
7940;BME280;4015;48.888;9.226;2024-02-23T11:58:39;157667.38;;;9.64;64.37
7940;BME280;4015;48.888;9.226;2024-02-23T12:01:05;157659.69;;;9.61;65.74
7940;BME280;4015;48.888;9.226;2024-02-23T12:03:32;157611.19;;;9.42;63.57
7940;BME280;4015;48.888;9.226;2024-02-23T12:05:58;157649.50;;;9.57;62.89
7940;BME280;4015;48.888;9.226;2024-02-23T12:08:27;157657.13;;;9.60;63.95
7940;BME280;4015;48.888;9.226;2024-02-23T12:10:57;157641.81;;;9.54;64.18
7940;BME280;4015;48.888;9.226;2024-02-23T12:13:26;157609.91;;;9.41;63.91
7940;BME280;4015;48.888;9.226;2024-02-23T12:15:52;157574.19;;;9.27;65.30
7940;BME280;4015;48.888;9.226;2024-02-23T12:18:18;157530.78;;;9.10;64.55
7940;BME280;4015;48.888;9.226;2024-02-23T12:20:47;157510.38;;;9.02;65.24
7940;BME280;4015;48.888;9.226;2024-02-23T12:23:13;157484.84;;;8.91;66.44
7940;BME280;4015;48.888;9.226;2024-02-23T12:25:38;157450.41;;;8.78;66.04
7940;BME280;4015;48.888;9.226;2024-02-23T12:28:04;157449.13;;;8.77;63.35
7940;BME280;4015;48.888;9.226;2024-02-23T12:30:30;157464.44;;;8.83;65.46
7940;BME280;4015;48.888;9.226;2024-02-23T12:33:04;157465.72;;;8.84;65.10
7940;BME280;4015;48.888;9.226;2024-02-23T12:35:29;157458.06;;;8.81;65.52
7940;BME280;4015;48.888;9.226;2024-02-23T12:37:55;157452.94;;;8.79;64.86
7940;BME280;4015;48.888;9.226;2024-02-23T12:40:20;157511.66;;;9.02;65.88
7940;BME280;4015;48.888;9.226;2024-02-23T12:42:45;157556.31;;;9.20;65.77
7940;BME280;4015;48.888;9.226;2024-02-23T12:45:13;157570.38;;;9.26;63.43
7940;BME280;4015;48.888;9.226;2024-02-23T12:47:39;157504.00;;;8.99;64.15
7940;BME280;4015;48.888;9.226;2024-02-23T12:50:05;157507.81;;;9.01;65.34
7940;BME280;4015;48.888;9.226;2024-02-23T12:52:30;157502.69;;;8.99;63.79
7940;BME280;4015;48.888;9.226;2024-02-23T12:54:56;157498.88;;;8.97;64.61
7940;BME280;4015;48.888;9.226;2024-02-23T12:57:21;157535.91;;;9.12;64.70
7940;BME280;4015;48.888;9.226;2024-02-23T12:59:46;157500.16;;;8.98;64.17
7940;BME280;4015;48.888;9.226;2024-02-23T13:02:12;157518.00;;;9.05;64.09
7940;BME280;4015;48.888;9.226;2024-02-23T13:04:37;157515.47;;;9.04;65.58
7940;BME280;4015;48.888;9.226;2024-02-23T13:07:03;157512.91;;;9.03;64.74
7940;BME280;4015;48.888;9.226;2024-02-23T13:09:28;157459.34;;;8.81;64.43
7940;BME280;4015;48.888;9.226;2024-02-23T13:11:53;157459.34;;;8.81;65.46
7940;BME280;4015;48.888;9.226;2024-02-23T13:14:19;157501.41;;;8.98;65.26
7940;BME280;4015;48.888;9.226;2024-02-23T13:16:44;157526.97;;;9.08;63.71